Sunday, January 20, 2019, 1:54 AM EST
Back to Local

KBGR, Bangor Int'l Airport

Location: Bangor, ME, United States Lat: 44.8
Local Time: 1:54 AM EST ( 6:54 GMT) Lon: -68.817
Time Zone: US/Eastern Elev: 193 ft

Show me the last for .
Show Coded

Time T Td Feel RH Dir Speed Gust Alt SLP Vis Weather Sky Remarks
2019-01-20 00:53 4 0 -10 83 10° 9 - 30.32 30.33 1 -SN OVC020 1-hr Precip Total: Trace
6-hr Precip Total (1am): 0.00"
Snow depth: 3"
6-hr Min Temp (1am): 3.9°F
6-hr Max Temp (1am): 9.0°F
2019-01-20 00:15 5 0 -9 79 20° 9 - 30.33 - 1 -SN OVC020 1-hr Precip Total: Trace
2019-01-19 23:53 5 0 -9 79 30° 9 - 30.34 30.36 2 -SN OVC032 1-hr Precip Total: Trace
24-hr Min Temp (12am): 5.0°F
24-hr Max Temp (12am): 23.0°F
2019-01-19 23:21 5 -1 -10 75 40° 10 - 30.36 - 5 -SN BKN044 OVC070 1-hr Precip Total: Trace
2019-01-19 23:05 5 0 -9 79 30° 9 - 30.36 - 2 -SN BKN027 OVC070 1-hr Precip Total: Trace
2019-01-19 22:53 5 0 -7 79 40° 7 - 30.36 30.38 1 -SN OVC025 1-hr Precip Total: Trace
2019-01-19 22:28 6 1 -4 79 50° 6 - 30.36 - 1 -SN OVC027 1-hr Precip Total: Trace
2019-01-19 22:21 6 1 -7 79 30° 8 - 30.36 - 2 -SN OVC029 1-hr Precip Total: Trace
2019-01-19 21:53 6 1 -6 79 30° 7 - 30.37 30.39 3 -SN OVC043 1-hr Precip Total: Trace
6-hr Precip Total (10pm): 0.00"
2019-01-19 21:44 6 1 -7 79 20° 8 - 30.37 - 3 -SN OVC039 1-hr Precip Total: Trace
2019-01-19 20:53 6 1 -8 79 50° 9 - 30.38 30.40 1 -SN OVC022 1-hr Precip Total: Trace
2019-01-19 19:53 7 1 -8 75 30° 10 - 30.38 30.40 1 -SN OVC025 1-hr Precip Total: Trace
2019-01-19 19:48 7 0 -6 71 50° 8 - 30.38 - 1 -SN OVC025 1-hr Precip Total: Trace
2019-01-19 18:53 9 -3 -5 57 40° 10 - 30.38 30.40 10 OVC037 Snow depth: 2"
6-hr Min Temp (7pm): 9.0°F
6-hr Max Temp (7pm): 12.9°F
2019-01-19 17:53 9 -2 -5 60 20° 10 - 30.40 30.42 10 OVC060 None
2019-01-19 16:53 10 -6 2 47 20° 5 - 30.40 30.42 10 OVC075 None
2019-01-19 15:53 11 -5 -2 47 20° 9 - 30.36 30.38 10 BKN095 OVC200 None
2019-01-19 14:53 11 -3 -1 52 20° 8 - 30.34 30.35 10 SCT120 BKN200 None
2019-01-19 13:53 12 -4 0 47 30° 8 - 30.34 30.35 10 FEW120 BKN200 None
2019-01-19 12:53 12 -4 0 47 40° 8 - 30.35 30.37 10 FEW120 BKN250 Snow depth: 2"
6-hr Min Temp (1pm): 6.1°F
6-hr Max Temp (1pm): 12.0°F
2019-01-19 11:53 12 -4 0 47 20° 8 - 30.36 30.37 10 FEW110 BKN250 None
2019-01-19 10:53 11 -4 1 50 330° 6 - 30.35 30.37 10 FEW110 BKN250 None
2019-01-19 09:53 9 -5 -5 51 330° 10 - 30.38 30.39 10 BKN250 None
2019-01-19 08:53 8 -7 -7 49 350° 12 - 30.34 30.36 10 SCT250 None
2019-01-19 07:53 6 -4 -6 62 320° 7 - 30.31 30.32 10 SCT250 None
2019-01-19 06:53 8 -2 -7 62 330° 12 - 30.28 30.29 10 SCT250 24-hr Precip Total (7am): 0.01"
Snow depth: 2"
6-hr Min Temp (7am): 7.0°F
6-hr Max Temp (7am): 19.9°F
2019-01-19 05:53 10 0 -7 62 350° 15 - 30.25 30.26 10 OVC250 None
2019-01-19 04:53 12 3 -3 66 320° 14 - 30.22 30.23 10 OVC250 None
2019-01-19 03:53 13 4 4 66 350° 6 - 30.21 30.22 8 BKN250 None
2019-01-19 02:53 17 6 2 61 350° 15 - 30.17 30.18 10 SCT250 None

Support USWX by starting your Amazon purchase here.